メインページ
METAR-TAF:

METAR-TAF

空港 :

イルクーツク国際空港

イルクーツク, ロシア

緯度: 52-16N, 経度: 104-19E, 海抜: 513m

現時点の気象観測

当レポートは26分前の19:00(UTC)に作成
北西の風 16kt
気温 5°C
湿度 93%
気圧 1020 hPa
視程10km以上
高度1100ftの曇り, 積乱雲.
弱いにわか雨

METAR: UIII 181900Z 32008MPS 9999 -SHRA OVC011CB 05/04 Q1020 R30/290150 NOSIG RMK QFE720/0960

時間: 03:26 (19:26 UTC)

予報

当レポートは2時間26分前の17:00(UTC)に作成
予報は18日の 18時(UTC)から 19日の 18時(UTC)まで有効
西/北西の風 10kt、最大19ktの突風を伴う
視程: 5000m
高度400ftの曇り, 積乱雲.
弱いにわか雨
18日の 18時(UTC)から 19日の 12時(UTC)まで一時的に
西/北西の風 19kt、最大29ktの突風を伴う
視程: 1200m
高度100ftの千切れ雲あり
高度400ftの曇り, 積乱雲.
にわか雨, 雪

TAF: UIII 181700Z 1818/1918 30005G10MPS 5000 -SHRA OVC004CB TEMPO 1818/1912 30010G15MPS 1200 SHRASN BKN001 OVC004CB

4,000以上の空港の気象観測と天気予報(METAR報とTAF報)

利用可能な観測所は地図上に黄色い丸と赤い丸で示す。

丸の上にカーソルを重ねると観測所名を参照できる。

次にクリックすると気象観測と天気予報を参照できる。

マップの切り替え:黒色「×」印の緑ボタンをクリックして拡大、「-」印の緑ボタンをクリックして縮小、緑色の三角印をクリックして隣りの地図に切り替え


METAR-TAF: